createdAt,value
2018-08-14T00:00:27.820Z,71.15
2018-08-14T00:02:56.427Z,71.10
2018-08-14T00:05:24.704Z,72.20
2018-08-14T00:07:52.955Z,72.22
2018-08-14T00:10:21.196Z,72.17
2018-08-14T00:12:49.464Z,71.66
2018-08-14T00:15:17.761Z,70.95
2018-08-14T00:17:47.800Z,70.81
2018-08-14T00:20:17.609Z,71.54
2018-08-14T00:22:45.933Z,70.86
2018-08-14T00:25:14.192Z,71.48
2018-08-14T00:27:42.477Z,71.23
2018-08-14T00:30:14.308Z,71.19
2018-08-14T00:32:43.552Z,70.99
2018-08-14T00:35:11.781Z,71.63
2018-08-14T00:37:40.021Z,71.27
2018-08-14T00:40:14.276Z,71.83
2018-08-14T00:42:42.580Z,72.02
2018-08-14T00:45:12.863Z,70.98
2018-08-14T00:47:41.091Z,70.90
2018-08-14T00:50:10.105Z,71.14
2018-08-14T00:52:38.365Z,71.62
2018-08-14T00:55:07.784Z,71.00
2018-08-14T00:57:36.029Z,72.04
2018-08-14T01:00:06.698Z,72.07
2018-08-14T01:02:34.969Z,72.04
2018-08-14T01:05:03.248Z,71.91
2018-08-14T01:07:31.496Z,71.08
2018-08-14T01:09:59.732Z,71.17
2018-08-14T01:12:28.011Z,72.21
2018-08-14T01:14:56.292Z,71.54
2018-08-14T01:17:24.532Z,71.69
2018-08-14T01:19:52.797Z,71.46
2018-08-14T01:22:21.056Z,72.53
2018-08-14T01:24:49.268Z,72.35
2018-08-14T01:27:17.537Z,71.34
2018-08-14T01:29:45.992Z,72.23
2018-08-14T01:32:14.823Z,72.16
2018-08-14T01:34:43.052Z,72.60
2018-08-14T01:37:11.284Z,72.48
2018-08-14T01:39:39.537Z,71.66
2018-08-14T01:42:07.819Z,72.35
2018-08-14T01:44:36.041Z,71.40
2018-08-14T01:47:07.140Z,71.66
2018-08-14T01:49:35.381Z,72.56
2018-08-14T01:52:03.844Z,71.90
2018-08-14T01:54:32.093Z,72.41
2018-08-14T01:57:00.365Z,72.06
2018-08-14T01:59:28.630Z,72.10
2018-08-14T02:01:56.856Z,72.43
2018-08-14T02:04:25.092Z,71.99
2018-08-14T02:06:53.348Z,72.48
2018-08-14T02:09:21.590Z,72.43
2018-08-14T02:11:49.848Z,72.88
2018-08-14T02:14:18.140Z,72.78
2018-08-14T02:16:46.359Z,72.71
2018-08-14T02:19:14.648Z,72.68
2018-08-14T02:21:42.912Z,71.92
2018-08-14T02:24:11.160Z,72.58
2018-08-14T02:26:39.404Z,71.88
2018-08-14T02:29:07.669Z,72.55
2018-08-14T02:31:35.925Z,71.66
2018-08-14T02:34:04.252Z,72.10
2018-08-14T02:36:32.515Z,72.86
2018-08-14T02:39:00.760Z,71.96
2018-08-14T02:41:28.985Z,72.36
2018-08-14T02:43:57.209Z,71.80
2018-08-14T02:46:25.428Z,71.95
2018-08-14T02:48:53.744Z,72.85
2018-08-14T02:51:21.981Z,71.89
2018-08-14T02:53:50.204Z,72.38
2018-08-14T02:56:18.577Z,72.33
2018-08-14T02:58:46.863Z,72.82
2018-08-14T03:01:15.052Z,71.90
2018-08-14T03:03:43.276Z,72.40
2018-08-14T03:06:11.544Z,71.97
2018-08-14T03:08:39.797Z,72.39
2018-08-14T03:11:08.049Z,72.56
2018-08-14T03:13:36.280Z,72.27
2018-08-14T03:16:04.544Z,71.70
2018-08-14T03:18:32.777Z,72.21
2018-08-14T03:21:01.001Z,72.29
2018-08-14T03:23:29.200Z,72.00
2018-08-14T03:25:57.417Z,72.24
2018-08-14T03:28:25.652Z,72.70
2018-08-14T03:30:53.941Z,71.89
2018-08-14T03:33:22.216Z,71.85
2018-08-14T03:35:50.620Z,72.63
2018-08-14T03:38:18.841Z,71.45
2018-08-14T03:40:47.093Z,71.85
2018-08-14T03:43:15.340Z,72.94
2018-08-14T03:45:43.560Z,72.68
2018-08-14T03:48:11.832Z,72.90
2018-08-14T03:50:40.067Z,71.70
2018-08-14T03:53:08.956Z,71.63
2018-08-14T03:55:37.332Z,72.64
2018-08-14T03:58:05.620Z,71.80
2018-08-14T04:00:33.896Z,72.51
2018-08-14T04:03:02.104Z,72.60
2018-08-14T04:05:30.372Z,71.79
2018-08-14T04:07:58.600Z,71.94
2018-08-14T04:10:26.788Z,71.17
2018-08-14T04:12:55.045Z,72.33
2018-08-14T04:15:23.321Z,71.77
2018-08-14T04:17:55.761Z,72.09
2018-08-14T04:20:24.065Z,72.19
2018-08-14T04:22:52.269Z,72.43
2018-08-14T04:25:20.533Z,71.35
2018-08-14T04:27:48.743Z,71.67
2018-08-14T04:30:16.941Z,72.31
2018-08-14T04:32:45.723Z,72.00
2018-08-14T04:35:14.724Z,72.36
2018-08-14T04:37:43.616Z,71.64
2018-08-14T04:40:12.767Z,72.54
2018-08-14T04:42:41.635Z,72.69
2018-08-14T04:45:10.221Z,71.60
2018-08-14T04:47:38.940Z,71.34
2018-08-14T04:50:08.944Z,71.67
2018-08-14T04:52:37.218Z,72.62
2018-08-14T04:55:06.184Z,72.75
2018-08-14T04:57:34.416Z,71.86
2018-08-14T05:00:02.633Z,72.16
2018-08-14T05:02:30.864Z,73.17
2018-08-14T05:04:59.190Z,72.53
2018-08-14T05:07:27.448Z,72.15
2018-08-14T05:09:55.668Z,72.33
2018-08-14T05:12:23.936Z,73.04
2018-08-14T05:14:52.164Z,73.07
2018-08-14T05:17:20.361Z,71.83
2018-08-14T05:19:48.580Z,72.44
2018-08-14T05:22:16.808Z,73.02
2018-08-14T05:24:45.085Z,72.44
2018-08-14T05:27:13.393Z,73.37
2018-08-14T05:29:41.633Z,72.92
2018-08-14T05:32:09.868Z,72.29
2018-08-14T05:34:38.076Z,73.54
2018-08-14T05:37:06.329Z,73.42
2018-08-14T05:39:34.536Z,73.20
2018-08-14T05:42:02.801Z,73.40
2018-08-14T05:44:31.032Z,73.41
2018-08-14T05:46:59.276Z,72.85
2018-08-14T05:49:27.549Z,74.28
2018-08-14T05:51:55.844Z,74.85
2018-08-14T05:54:24.153Z,75.08
2018-08-14T05:56:52.377Z,78.30
2018-08-14T05:59:20.662Z,78.10
2018-08-14T06:01:48.944Z,78.88
2018-08-14T06:04:17.316Z,78.93
2018-08-14T06:06:45.546Z,79.44
2018-08-14T06:09:13.980Z,79.27
2018-08-14T06:11:43.032Z,80.20
2018-08-14T06:14:11.240Z,80.89
2018-08-14T06:16:39.865Z,79.74
2018-08-14T06:19:08.472Z,81.23
2018-08-14T06:21:36.792Z,81.04
2018-08-14T06:24:05.269Z,80.00
2018-08-14T06:26:33.484Z,81.05
2018-08-14T06:29:01.850Z,81.58
2018-08-14T06:31:30.123Z,81.12
2018-08-14T06:33:58.340Z,80.71
2018-08-14T06:36:26.600Z,80.99
2018-08-14T06:38:54.949Z,81.12
2018-08-14T06:41:23.221Z,80.60
2018-08-14T06:43:51.461Z,81.49
2018-08-14T06:46:19.840Z,81.41
2018-08-14T06:48:48.329Z,80.71
2018-08-14T06:51:16.544Z,81.57
2018-08-14T06:53:44.832Z,80.99
2018-08-14T06:56:13.625Z,80.30
2018-08-14T06:58:41.856Z,81.25
2018-08-14T07:01:10.239Z,80.86
2018-08-14T07:03:38.488Z,80.92
2018-08-14T07:06:06.832Z,79.85
2018-08-14T07:08:35.056Z,80.56
2018-08-14T07:11:03.294Z,80.58
2018-08-14T07:13:31.540Z,79.78
2018-08-14T07:15:59.841Z,79.02
2018-08-14T07:18:28.251Z,79.46
2018-08-14T07:20:56.561Z,79.87
2018-08-14T07:23:24.901Z,79.88
2018-08-14T07:25:53.146Z,79.61
2018-08-14T07:28:21.413Z,79.15
2018-08-14T07:30:49.568Z,80.52
2018-08-14T07:33:17.788Z,80.07
2018-08-14T07:35:45.996Z,80.80
2018-08-14T07:38:14.244Z,80.48
2018-08-14T07:40:42.516Z,79.98
2018-08-14T07:43:10.781Z,81.04
2018-08-14T07:45:39.045Z,79.69
2018-08-14T07:48:07.340Z,79.59
2018-08-14T07:50:35.596Z,80.61
2018-08-14T07:53:03.925Z,79.35
2018-08-14T07:55:32.132Z,79.33
2018-08-14T07:58:00.431Z,79.81
2018-08-14T08:00:28.748Z,80.14
2018-08-14T08:02:57.084Z,79.27
2018-08-14T08:05:25.300Z,78.40
2018-08-14T08:07:53.517Z,79.25
2018-08-14T08:10:21.797Z,78.92
2018-08-14T08:12:50.054Z,78.44
2018-08-14T08:15:19.384Z,77.78
2018-08-14T08:17:48.165Z,77.65
2018-08-14T08:20:25.325Z,77.75
2018-08-14T08:22:53.544Z,76.91
2018-08-14T08:25:21.805Z,76.97
2018-08-14T08:27:50.065Z,77.51
2018-08-14T08:30:18.416Z,76.26
2018-08-14T08:32:46.692Z,76.25
2018-08-14T08:35:15.196Z,76.27
2018-08-14T08:37:43.689Z,76.02
2018-08-14T08:40:12.779Z,76.36
2018-08-14T08:42:40.994Z,76.49
2018-08-14T08:45:10.021Z,75.11
2018-08-14T08:47:38.297Z,74.65
2018-08-14T08:50:08.990Z,73.96
2018-08-14T08:52:37.245Z,73.38
2018-08-14T08:55:05.976Z,72.70
2018-08-14T08:57:34.234Z,72.81
2018-08-14T09:00:02.553Z,72.60
2018-08-14T09:02:30.800Z,71.83
2018-08-14T09:04:59.033Z,71.96
2018-08-14T09:07:27.304Z,71.77
2018-08-14T09:09:55.524Z,72.01
2018-08-14T09:12:23.844Z,72.18
2018-08-14T09:14:52.063Z,71.25
2018-08-14T09:17:20.360Z,72.35
2018-08-14T09:19:48.674Z,72.13
2018-08-14T09:22:16.908Z,70.93
2018-08-14T09:24:45.140Z,70.30
2018-08-14T09:27:13.425Z,69.25
2018-08-14T09:29:41.680Z,69.15
2018-08-14T09:32:09.932Z,68.61
2018-08-14T09:34:38.169Z,69.82
2018-08-14T09:37:06.513Z,70.15
2018-08-14T09:39:34.788Z,69.99
2018-08-14T09:42:03.020Z,69.13
2018-08-14T09:44:31.264Z,68.62
2018-08-14T09:46:59.550Z,69.42
2018-08-14T09:49:27.764Z,68.50
2018-08-14T09:51:56.048Z,68.95
2018-08-14T09:54:24.370Z,69.09
2018-08-14T09:56:52.564Z,68.52
2018-08-14T09:59:20.828Z,68.05
2018-08-14T10:01:54.335Z,66.39
2018-08-14T10:04:26.769Z,65.48
2018-08-14T10:07:00.268Z,64.68
2018-08-14T10:09:28.524Z,64.78
2018-08-14T10:11:56.808Z,65.46
2018-08-14T10:14:30.522Z,66.05
2018-08-14T10:16:58.758Z,65.77
2018-08-14T10:19:26.984Z,65.74
2018-08-14T10:21:55.239Z,65.78
2018-08-14T10:24:23.468Z,66.37
2018-08-14T10:26:51.803Z,66.48
2018-08-14T10:29:19.965Z,65.71
2018-08-14T10:31:48.221Z,65.99
2018-08-14T10:34:16.448Z,65.01
2018-08-14T10:36:44.676Z,64.12
2018-08-14T10:39:12.905Z,64.77
2018-08-14T10:41:41.161Z,64.72
2018-08-14T10:44:09.660Z,65.49
2018-08-14T10:46:37.987Z,65.25
2018-08-14T10:49:06.233Z,65.89
2018-08-14T10:51:34.544Z,66.40
2018-08-14T10:54:02.816Z,64.85
2018-08-14T10:56:31.085Z,65.23
2018-08-14T10:58:59.412Z,64.82
2018-08-14T11:01:27.644Z,64.67
2018-08-14T11:03:55.940Z,65.70
2018-08-14T11:06:24.385Z,64.13
2018-08-14T11:08:52.635Z,64.90
2018-08-14T11:11:25.097Z,65.55
2018-08-14T11:13:53.344Z,65.96
2018-08-14T11:16:21.619Z,65.32
2018-08-14T11:18:49.820Z,65.45
2018-08-14T11:21:18.068Z,64.69
2018-08-14T11:23:46.323Z,63.83
2018-08-14T11:26:14.602Z,60.84
2018-08-14T11:28:42.824Z,59.27
2018-08-14T11:31:11.035Z,58.77
2018-08-14T11:33:39.272Z,60.15
2018-08-14T11:36:07.696Z,60.50
2018-08-14T11:38:36.420Z,60.10
2018-08-14T11:41:05.557Z,57.07
2018-08-14T11:43:33.828Z,56.39
2018-08-14T11:46:02.072Z,55.00
2018-08-14T11:48:30.824Z,53.91
2018-08-14T11:50:59.099Z,54.57
2018-08-14T11:53:27.366Z,54.28
2018-08-14T11:55:55.700Z,55.91
2018-08-14T11:58:23.945Z,55.42
2018-08-14T12:00:52.209Z,55.46
2018-08-14T12:03:20.516Z,55.32
2018-08-14T12:05:48.753Z,55.32
2018-08-14T12:08:16.980Z,55.80
2018-08-14T12:10:45.231Z,55.31
2018-08-14T12:13:13.412Z,55.97
2018-08-14T12:15:41.720Z,57.05
2018-08-14T12:18:09.949Z,55.93
2018-08-14T12:20:38.185Z,54.85
2018-08-14T12:23:06.476Z,57.42
2018-08-14T12:25:34.712Z,55.72
2018-08-14T12:28:02.992Z,53.96
2018-08-14T12:30:31.192Z,51.05
2018-08-14T12:32:59.421Z,51.91
2018-08-14T12:35:27.670Z,54.02
2018-08-14T12:37:55.928Z,52.49
2018-08-14T12:40:24.228Z,52.98
2018-08-14T12:42:52.421Z,52.57
2018-08-14T12:45:22.528Z,53.49
2018-08-14T12:47:51.565Z,53.34
2018-08-14T12:50:20.577Z,51.95
2018-08-14T12:52:48.960Z,52.41
2018-08-14T12:55:17.661Z,51.99
2018-08-14T12:57:46.561Z,49.94
2018-08-14T13:00:29.445Z,49.69
2018-08-14T13:02:57.724Z,49.50
2018-08-14T13:05:26.804Z,49.77
2018-08-14T13:07:55.248Z,48.75
2018-08-14T13:10:23.544Z,49.21
2018-08-14T13:12:51.826Z,48.85
2018-08-14T13:15:20.165Z,50.80
2018-08-14T13:18:03.837Z,51.35
2018-08-14T13:20:32.120Z,49.94
2018-08-14T13:23:00.445Z,50.58
2018-08-14T13:25:29.676Z,50.28
2018-08-14T13:27:57.948Z,49.57
2018-08-14T13:30:26.205Z,48.68
2018-08-14T13:32:54.556Z,49.32
2018-08-14T13:35:22.760Z,48.79
2018-08-14T13:37:51.034Z,47.34
2018-08-14T13:40:19.318Z,46.90
2018-08-14T13:42:48.072Z,48.42
2018-08-14T13:45:16.340Z,46.41
2018-08-14T13:47:44.644Z,47.16
2018-08-14T13:50:13.520Z,46.99
2018-08-14T13:52:41.841Z,48.72
2018-08-14T13:55:14.439Z,48.45
2018-08-14T13:57:43.285Z,50.23
2018-08-14T14:00:19.149Z,50.64
2018-08-14T14:02:47.352Z,50.95
2018-08-14T14:05:15.717Z,50.98
2018-08-14T14:07:44.232Z,51.53
2018-08-14T14:10:13.940Z,52.00
2018-08-14T14:12:42.648Z,52.64
2018-08-14T14:15:16.180Z,53.27
2018-08-14T14:17:45.986Z,54.05
2018-08-14T14:20:14.692Z,54.29
2018-08-14T14:22:43.705Z,54.37
2018-08-14T14:25:12.180Z,53.97
2018-08-14T14:27:40.504Z,52.99
2018-08-14T14:30:11.116Z,53.74
2018-08-14T14:32:39.372Z,53.01
2018-08-14T14:35:08.218Z,54.17
2018-08-14T14:37:36.793Z,56.17
2018-08-14T14:40:08.372Z,56.94
2018-08-14T14:42:36.652Z,56.64
2018-08-14T14:45:06.981Z,57.48
2018-08-14T14:47:35.230Z,57.17
2018-08-14T14:50:03.525Z,57.90
2018-08-14T14:52:31.761Z,56.82
2018-08-14T14:55:00.001Z,55.84
2018-08-14T14:57:28.233Z,55.21
2018-08-14T14:59:56.560Z,56.86
2018-08-14T15:02:24.897Z,58.33
2018-08-14T15:04:53.152Z,63.07
2018-08-14T15:07:21.429Z,64.19
2018-08-14T15:09:49.633Z,62.94
2018-08-14T15:12:17.931Z,60.41
2018-08-14T15:14:46.217Z,59.48
2018-08-14T15:17:14.429Z,58.76
2018-08-14T15:19:42.697Z,57.96
2018-08-14T15:22:10.939Z,56.39
2018-08-14T15:24:39.189Z,57.84
2018-08-14T15:27:07.527Z,58.40
2018-08-14T15:29:35.785Z,57.14
2018-08-14T15:32:05.125Z,57.42
2018-08-14T15:34:35.541Z,54.97
2018-08-14T15:37:05.561Z,55.72
2018-08-14T15:39:33.784Z,56.52
2018-08-14T15:42:02.541Z,56.46
2018-08-14T15:44:30.800Z,56.51
2018-08-14T15:46:59.037Z,57.11
2018-08-14T15:49:27.550Z,58.08
2018-08-14T15:51:55.621Z,60.23
2018-08-14T15:54:23.877Z,59.16
2018-08-14T15:56:52.121Z,59.47
2018-08-14T15:59:20.360Z,59.88
2018-08-14T16:01:48.971Z,61.20
2018-08-14T16:04:18.502Z,60.73
2018-08-14T16:06:46.760Z,61.42
2018-08-14T16:09:17.844Z,61.39
2018-08-14T16:11:46.857Z,62.88
2018-08-14T16:14:15.129Z,63.33
2018-08-14T16:16:43.477Z,63.69
2018-08-14T16:19:12.805Z,65.55
2018-08-14T16:21:41.309Z,65.62
2018-08-14T16:24:10.265Z,66.47
2018-08-14T16:26:38.537Z,67.51
2018-08-14T16:29:06.929Z,67.79
2018-08-14T16:31:35.172Z,67.92
2018-08-14T16:34:03.561Z,69.39
2018-08-14T16:36:31.805Z,69.16
2018-08-14T16:39:00.046Z,69.18
2018-08-14T16:41:28.292Z,69.70
2018-08-14T16:43:56.514Z,69.99
2018-08-14T16:46:24.736Z,69.61
2018-08-14T16:48:53.032Z,69.20
2018-08-14T16:51:21.268Z,69.47
2018-08-14T16:53:50.924Z,69.63
2018-08-14T16:56:19.216Z,69.36
2018-08-14T16:58:47.512Z,68.95
2018-08-14T17:01:15.815Z,68.76
2018-08-14T17:03:44.073Z,67.98
2018-08-14T17:06:12.337Z,68.70
2018-08-14T17:08:40.588Z,68.13
2018-08-14T17:11:08.800Z,68.27
2018-08-14T17:13:37.064Z,69.40
2018-08-14T17:16:05.312Z,69.35
2018-08-14T17:18:33.553Z,68.36
2018-08-14T17:21:00.717Z,68.77
2018-08-14T17:23:28.943Z,69.31
2018-08-14T17:25:57.308Z,69.26
2018-08-14T17:28:25.589Z,68.12
2018-08-14T17:30:53.812Z,69.18
2018-08-14T17:33:22.043Z,69.38
2018-08-14T17:35:50.248Z,68.51
2018-08-14T17:38:18.589Z,68.63
2018-08-14T17:40:46.795Z,69.60
2018-08-14T17:43:15.049Z,68.25
2018-08-14T17:45:43.276Z,69.53
2018-08-14T17:48:11.561Z,69.96
2018-08-14T17:50:39.800Z,69.12
2018-08-14T17:53:08.021Z,69.06
2018-08-14T17:55:42.515Z,69.13
2018-08-14T17:58:10.768Z,69.30
2018-08-14T18:00:38.948Z,69.33
2018-08-14T18:03:08.784Z,67.91
2018-08-14T18:05:37.134Z,67.99
2018-08-14T18:08:06.405Z,68.60
2018-08-14T18:10:34.636Z,68.16
2018-08-14T18:13:02.884Z,67.87
2018-08-14T18:15:32.056Z,68.11
2018-08-14T18:18:00.381Z,68.30
2018-08-14T18:20:28.624Z,68.07
2018-08-14T18:22:56.848Z,67.73
2018-08-14T18:25:25.468Z,67.89
2018-08-14T18:27:54.004Z,66.88
2018-08-14T18:30:23.032Z,67.62
2018-08-14T18:32:51.765Z,66.63
2018-08-14T18:35:20.257Z,67.48
2018-08-14T18:37:49.068Z,67.22
2018-08-14T18:40:18.889Z,66.42
2018-08-14T18:42:48.101Z,67.77
2018-08-14T18:45:17.828Z,68.51
2018-08-14T18:47:46.188Z,68.69
2018-08-14T18:50:15.660Z,68.97
2018-08-14T18:52:43.980Z,68.88
2018-08-14T18:55:14.177Z,68.81
2018-08-14T18:57:43.252Z,69.03
2018-08-14T19:00:22.737Z,68.97
2018-08-14T19:02:52.129Z,68.17
2018-08-14T19:05:20.816Z,68.84
2018-08-14T19:07:49.173Z,69.47
2018-08-14T19:10:18.733Z,69.35
2018-08-14T19:12:47.884Z,68.71
2018-08-14T19:15:21.520Z,69.03
2018-08-14T19:17:49.760Z,68.86
2018-08-14T19:20:17.989Z,69.50
2018-08-14T19:22:46.263Z,70.08
2018-08-14T19:25:14.493Z,69.26
2018-08-14T19:27:43.307Z,69.32
2018-08-14T19:30:13.048Z,69.69
2018-08-14T19:32:41.829Z,69.52
2018-08-14T19:35:11.428Z,69.44
2018-08-14T19:37:39.937Z,69.46
2018-08-14T19:40:24.227Z,69.42
2018-08-14T19:42:52.849Z,68.63
2018-08-14T19:45:21.040Z,68.06
2018-08-14T19:47:49.444Z,68.13
2018-08-14T19:50:18.568Z,68.89
2018-08-14T19:52:46.828Z,69.43
2018-08-14T19:55:19.336Z,68.88
2018-08-14T19:57:49.001Z,68.79
2018-08-14T20:00:22.017Z,69.88
2018-08-14T20:02:50.738Z,69.14
2018-08-14T20:05:18.929Z,69.27
2018-08-14T20:07:47.320Z,69.28
2018-08-14T20:10:15.616Z,69.89
2018-08-14T20:12:44.012Z,70.49
2018-08-14T20:15:14.644Z,70.41
2018-08-14T20:17:43.214Z,70.75
2018-08-14T20:20:15.265Z,71.42
2018-08-14T20:22:43.520Z,71.25
2018-08-14T20:25:11.785Z,70.55
2018-08-14T20:27:40.068Z,70.57
2018-08-14T20:30:12.916Z,70.30
2018-08-14T20:32:41.449Z,71.11
2018-08-14T20:35:14.001Z,71.17
2018-08-14T20:37:42.917Z,71.25
2018-08-14T20:40:13.141Z,70.62
2018-08-14T20:42:41.405Z,70.45
2018-08-14T20:45:11.067Z,70.41
2018-08-14T20:47:39.334Z,71.26
2018-08-14T20:50:10.289Z,70.47
2018-08-14T20:52:38.777Z,70.55
2018-08-14T20:55:08.705Z,71.49
2018-08-14T20:57:37.216Z,71.14
2018-08-14T21:00:05.881Z,71.61
2018-08-14T21:02:34.421Z,71.07
2018-08-14T21:05:02.668Z,70.84
2018-08-14T21:07:30.896Z,71.36
2018-08-14T21:09:59.159Z,70.71
2018-08-14T21:12:32.658Z,70.76
2018-08-14T21:15:01.061Z,70.59
2018-08-14T21:17:29.327Z,70.79
2018-08-14T21:19:57.552Z,70.83
2018-08-14T21:22:25.784Z,70.74
2018-08-14T21:24:54.036Z,70.73
2018-08-14T21:27:22.344Z,71.69
2018-08-14T21:29:50.586Z,71.49
2018-08-14T21:32:18.832Z,70.96
2018-08-14T21:34:47.157Z,71.23
2018-08-14T21:37:15.308Z,69.98
2018-08-14T21:39:43.592Z,70.18
2018-08-14T21:42:12.048Z,69.78
2018-08-14T21:44:40.343Z,69.76
2018-08-14T21:47:08.584Z,70.13
2018-08-14T21:49:36.832Z,69.68
2018-08-14T21:52:05.089Z,68.86
2018-08-14T21:54:33.346Z,68.07
2018-08-14T21:57:01.593Z,67.26
2018-08-14T21:59:29.830Z,66.46
2018-08-14T22:01:58.081Z,64.42
2018-08-14T22:04:26.329Z,63.77
2018-08-14T22:06:54.545Z,64.46
2018-08-14T22:09:22.805Z,63.90
2018-08-14T22:11:51.049Z,65.40
2018-08-14T22:14:19.284Z,64.59
2018-08-14T22:16:47.557Z,65.23
2018-08-14T22:19:15.788Z,64.06
2018-08-14T22:21:44.053Z,63.70
2018-08-14T22:24:12.328Z,62.22
2018-08-14T22:26:40.540Z,62.95
2018-08-14T22:29:08.801Z,61.54
2018-08-14T22:31:37.097Z,61.87
2018-08-14T22:34:05.344Z,61.43
2018-08-14T22:36:33.588Z,61.85
2018-08-14T22:39:01.820Z,61.22
2018-08-14T22:41:30.075Z,60.27
2018-08-14T22:43:58.284Z,60.48
2018-08-14T22:46:26.520Z,61.96
2018-08-14T22:48:54.796Z,61.01
2018-08-14T22:51:23.013Z,62.24
2018-08-14T22:53:51.292Z,63.00
2018-08-14T22:56:19.540Z,62.33
2018-08-14T22:58:47.772Z,63.37
2018-08-14T23:01:16.008Z,61.59
2018-08-14T23:03:44.227Z,62.19
2018-08-14T23:06:12.481Z,62.11
2018-08-14T23:08:40.734Z,63.17
2018-08-14T23:11:12.065Z,62.90
2018-08-14T23:13:40.402Z,61.50
2018-08-14T23:16:08.562Z,61.65
2018-08-14T23:18:37.047Z,61.43
2018-08-14T23:21:05.844Z,63.03
2018-08-14T23:23:34.077Z,63.71
2018-08-14T23:26:02.351Z,62.93
2018-08-14T23:28:30.524Z,63.65
2018-08-14T23:30:58.765Z,62.51
2018-08-14T23:33:27.084Z,61.57
2018-08-14T23:35:55.416Z,61.03
2018-08-14T23:38:23.672Z,59.92
2018-08-14T23:40:51.924Z,60.14
2018-08-14T23:43:20.157Z,60.98
2018-08-14T23:45:48.420Z,62.52
2018-08-14T23:48:16.680Z,61.84
2018-08-14T23:50:44.925Z,61.45
2018-08-14T23:53:13.151Z,60.26
2018-08-14T23:55:41.377Z,61.02
2018-08-14T23:58:09.630Z,60.78
